sensor_id;sensor_type;location;lat;lon;timestamp;P1;durP1;ratioP1;P2;durP2;ratioP2
15878;SDS011;61999;51.514;14.614;2023-04-28T00:02:16;5.50;;;5.00;;
15878;SDS011;61999;51.514;14.614;2023-04-28T00:04:44;5.33;;;4.27;;
15878;SDS011;61999;51.514;14.614;2023-04-28T00:07:12;5.03;;;4.20;;
15878;SDS011;61999;51.514;14.614;2023-04-28T00:09:41;5.23;;;4.63;;
15878;SDS011;61999;51.514;14.614;2023-04-28T00:12:09;6.63;;;4.70;;
15878;SDS011;61999;51.514;14.614;2023-04-28T00:14:37;6.10;;;4.87;;
15878;SDS011;61999;51.514;14.614;2023-04-28T00:17:05;4.60;;;4.10;;
15878;SDS011;61999;51.514;14.614;2023-04-28T00:19:35;5.20;;;4.60;;
15878;SDS011;61999;51.514;14.614;2023-04-28T00:22:03;5.77;;;4.20;;
15878;SDS011;61999;51.514;14.614;2023-04-28T00:24:31;5.13;;;4.17;;
15878;SDS011;61999;51.514;14.614;2023-04-28T00:27:02;6.13;;;4.90;;
15878;SDS011;61999;51.514;14.614;2023-04-28T00:29:31;7.00;;;5.33;;
15878;SDS011;61999;51.514;14.614;2023-04-28T00:31:58;5.13;;;4.63;;
15878;SDS011;61999;51.514;14.614;2023-04-28T00:34:27;6.07;;;4.60;;
15878;SDS011;61999;51.514;14.614;2023-04-28T00:36:56;5.07;;;4.30;;
15878;SDS011;61999;51.514;14.614;2023-04-28T00:39:24;5.60;;;4.73;;
15878;SDS011;61999;51.514;14.614;2023-04-28T00:41:52;6.47;;;5.07;;
15878;SDS011;61999;51.514;14.614;2023-04-28T00:44:22;5.43;;;4.70;;
15878;SDS011;61999;51.514;14.614;2023-04-28T00:46:50;5.73;;;5.23;;
15878;SDS011;61999;51.514;14.614;2023-04-28T00:49:18;7.13;;;5.27;;
15878;SDS011;61999;51.514;14.614;2023-04-28T00:51:46;6.60;;;5.10;;
15878;SDS011;61999;51.514;14.614;2023-04-28T00:54:14;6.13;;;4.90;;
15878;SDS011;61999;51.514;14.614;2023-04-28T00:56:43;5.93;;;4.73;;
15878;SDS011;61999;51.514;14.614;2023-04-28T00:59:11;5.07;;;4.30;;
15878;SDS011;61999;51.514;14.614;2023-04-28T01:01:40;6.40;;;4.80;;
15878;SDS011;61999;51.514;14.614;2023-04-28T01:04:08;6.23;;;4.43;;
15878;SDS011;61999;51.514;14.614;2023-04-28T01:06:37;5.27;;;4.63;;
15878;SDS011;61999;51.514;14.614;2023-04-28T01:09:05;7.63;;;4.90;;
15878;SDS011;61999;51.514;14.614;2023-04-28T01:11:33;5.30;;;4.77;;
15878;SDS011;61999;51.514;14.614;2023-04-28T01:14:02;5.10;;;4.60;;
15878;SDS011;61999;51.514;14.614;2023-04-28T01:16:30;7.17;;;5.00;;
15878;SDS011;61999;51.514;14.614;2023-04-28T01:19:00;4.90;;;4.10;;
15878;SDS011;61999;51.514;14.614;2023-04-28T01:21:29;6.33;;;4.67;;
15878;SDS011;61999;51.514;14.614;2023-04-28T01:24:00;5.30;;;4.27;;
15878;SDS011;61999;51.514;14.614;2023-04-28T01:26:28;5.23;;;4.13;;
15878;SDS011;61999;51.514;14.614;2023-04-28T01:28:56;6.67;;;5.17;;
15878;SDS011;61999;51.514;14.614;2023-04-28T01:31:24;6.87;;;5.60;;
15878;SDS011;61999;51.514;14.614;2023-04-28T01:33:52;5.40;;;4.90;;
15878;SDS011;61999;51.514;14.614;2023-04-28T01:36:20;6.60;;;5.17;;
15878;SDS011;61999;51.514;14.614;2023-04-28T01:38:49;6.10;;;5.20;;
15878;SDS011;61999;51.514;14.614;2023-04-28T01:41:18;6.07;;;5.47;;
15878;SDS011;61999;51.514;14.614;2023-04-28T01:43:47;7.57;;;6.30;;
15878;SDS011;61999;51.514;14.614;2023-04-28T01:46:15;7.00;;;5.03;;
15878;SDS011;61999;51.514;14.614;2023-04-28T01:48:43;6.00;;;5.40;;
15878;SDS011;61999;51.514;14.614;2023-04-28T01:51:12;6.10;;;5.50;;
15878;SDS011;61999;51.514;14.614;2023-04-28T01:53:40;6.03;;;4.90;;
15878;SDS011;61999;51.514;14.614;2023-04-28T01:56:08;6.27;;;5.03;;
15878;SDS011;61999;51.514;14.614;2023-04-28T01:58:38;7.73;;;5.73;;
15878;SDS011;61999;51.514;14.614;2023-04-28T02:01:05;7.63;;;5.97;;
15878;SDS011;61999;51.514;14.614;2023-04-28T02:03:33;8.83;;;6.00;;
15878;SDS011;61999;51.514;14.614;2023-04-28T02:06:01;9.77;;;5.67;;
15878;SDS011;61999;51.514;14.614;2023-04-28T02:08:30;6.67;;;5.63;;
15878;SDS011;61999;51.514;14.614;2023-04-28T02:10:58;6.20;;;5.60;;
15878;SDS011;61999;51.514;14.614;2023-04-28T02:13:26;6.77;;;5.47;;
15878;SDS011;61999;51.514;14.614;2023-04-28T02:15:58;9.00;;;6.50;;
15878;SDS011;61999;51.514;14.614;2023-04-28T02:18:27;7.17;;;5.97;;
15878;SDS011;61999;51.514;14.614;2023-04-28T02:20:55;7.57;;;5.50;;
15878;SDS011;61999;51.514;14.614;2023-04-28T02:23:23;8.90;;;6.43;;
15878;SDS011;61999;51.514;14.614;2023-04-28T02:25:59;6.80;;;5.33;;
15878;SDS011;61999;51.514;14.614;2023-04-28T02:28:28;6.33;;;5.57;;
15878;SDS011;61999;51.514;14.614;2023-04-28T02:31:03;7.30;;;5.43;;
15878;SDS011;61999;51.514;14.614;2023-04-28T02:33:33;8.50;;;5.27;;
15878;SDS011;61999;51.514;14.614;2023-04-28T02:36:01;6.50;;;5.87;;
15878;SDS011;61999;51.514;14.614;2023-04-28T02:38:31;6.97;;;5.77;;
15878;SDS011;61999;51.514;14.614;2023-04-28T02:40:59;7.03;;;6.07;;
15878;SDS011;61999;51.514;14.614;2023-04-28T02:43:30;7.57;;;6.07;;
15878;SDS011;61999;51.514;14.614;2023-04-28T02:46:00;9.20;;;6.30;;
15878;SDS011;61999;51.514;14.614;2023-04-28T02:48:31;9.13;;;6.83;;
15878;SDS011;61999;51.514;14.614;2023-04-28T02:51:01;9.47;;;6.50;;
15878;SDS011;61999;51.514;14.614;2023-04-28T02:53:29;9.60;;;7.60;;
15878;SDS011;61999;51.514;14.614;2023-04-28T02:55:57;8.47;;;7.27;;
15878;SDS011;61999;51.514;14.614;2023-04-28T02:58:27;7.70;;;6.57;;
15878;SDS011;61999;51.514;14.614;2023-04-28T03:00:55;10.17;;;7.00;;
15878;SDS011;61999;51.514;14.614;2023-04-28T03:03:24;8.40;;;6.77;;
15878;SDS011;61999;51.514;14.614;2023-04-28T03:05:52;7.57;;;6.63;;
15878;SDS011;61999;51.514;14.614;2023-04-28T03:08:22;10.07;;;7.33;;
15878;SDS011;61999;51.514;14.614;2023-04-28T03:10:50;9.53;;;7.30;;
15878;SDS011;61999;51.514;14.614;2023-04-28T03:13:17;7.50;;;6.63;;
15878;SDS011;61999;51.514;14.614;2023-04-28T03:15:45;9.13;;;6.70;;
15878;SDS011;61999;51.514;14.614;2023-04-28T03:18:13;9.33;;;7.03;;
15878;SDS011;61999;51.514;14.614;2023-04-28T03:20:42;9.40;;;7.10;;
15878;SDS011;61999;51.514;14.614;2023-04-28T03:23:10;8.87;;;6.97;;
15878;SDS011;61999;51.514;14.614;2023-04-28T03:25:38;9.07;;;6.80;;
15878;SDS011;61999;51.514;14.614;2023-04-28T03:28:06;11.93;;;8.43;;
15878;SDS011;61999;51.514;14.614;2023-04-28T03:30:35;11.00;;;8.23;;
15878;SDS011;61999;51.514;14.614;2023-04-28T03:33:03;10.40;;;7.77;;
15878;SDS011;61999;51.514;14.614;2023-04-28T03:35:32;8.37;;;7.57;;
15878;SDS011;61999;51.514;14.614;2023-04-28T03:38:01;11.97;;;8.00;;
15878;SDS011;61999;51.514;14.614;2023-04-28T03:40:30;8.60;;;7.40;;
15878;SDS011;61999;51.514;14.614;2023-04-28T03:42:57;9.77;;;7.40;;
15878;SDS011;61999;51.514;14.614;2023-04-28T03:45:27;9.70;;;8.10;;
15878;SDS011;61999;51.514;14.614;2023-04-28T03:47:55;11.10;;;8.43;;
15878;SDS011;61999;51.514;14.614;2023-04-28T03:50:23;9.80;;;8.37;;
15878;SDS011;61999;51.514;14.614;2023-04-28T03:52:51;9.97;;;7.73;;
15878;SDS011;61999;51.514;14.614;2023-04-28T03:55:21;12.43;;;9.03;;
15878;SDS011;61999;51.514;14.614;2023-04-28T03:57:49;10.77;;;8.67;;
15878;SDS011;61999;51.514;14.614;2023-04-28T04:00:17;13.43;;;10.13;;
15878;SDS011;61999;51.514;14.614;2023-04-28T04:02:45;11.83;;;9.30;;
15878;SDS011;61999;51.514;14.614;2023-04-28T04:05:13;13.57;;;9.83;;
15878;SDS011;61999;51.514;14.614;2023-04-28T04:07:41;13.83;;;9.27;;
15878;SDS011;61999;51.514;14.614;2023-04-28T04:10:09;13.33;;;8.70;;
15878;SDS011;61999;51.514;14.614;2023-04-28T04:12:39;11.33;;;9.37;;
15878;SDS011;61999;51.514;14.614;2023-04-28T04:15:07;13.63;;;9.47;;
15878;SDS011;61999;51.514;14.614;2023-04-28T04:17:36;11.93;;;9.83;;
15878;SDS011;61999;51.514;14.614;2023-04-28T04:20:05;13.93;;;8.80;;
15878;SDS011;61999;51.514;14.614;2023-04-28T04:22:34;11.33;;;8.63;;
15878;SDS011;61999;51.514;14.614;2023-04-28T04:25:02;12.67;;;9.10;;
15878;SDS011;61999;51.514;14.614;2023-04-28T04:27:31;13.60;;;10.43;;
15878;SDS011;61999;51.514;14.614;2023-04-28T04:30:00;16.23;;;11.97;;
15878;SDS011;61999;51.514;14.614;2023-04-28T04:32:28;13.13;;;10.23;;
15878;SDS011;61999;51.514;14.614;2023-04-28T04:34:56;14.13;;;10.77;;
15878;SDS011;61999;51.514;14.614;2023-04-28T04:37:24;13.93;;;10.90;;
15878;SDS011;61999;51.514;14.614;2023-04-28T04:39:52;13.77;;;9.63;;
15878;SDS011;61999;51.514;14.614;2023-04-28T04:42:20;14.67;;;9.57;;
15878;SDS011;61999;51.514;14.614;2023-04-28T04:44:50;16.23;;;10.33;;
15878;SDS011;61999;51.514;14.614;2023-04-28T04:47:19;13.80;;;10.13;;
15878;SDS011;61999;51.514;14.614;2023-04-28T04:49:47;13.23;;;10.20;;
15878;SDS011;61999;51.514;14.614;2023-04-28T04:52:16;11.17;;;9.23;;
15878;SDS011;61999;51.514;14.614;2023-04-28T04:54:44;14.03;;;10.07;;
15878;SDS011;61999;51.514;14.614;2023-04-28T04:57:12;13.47;;;9.53;;
15878;SDS011;61999;51.514;14.614;2023-04-28T04:59:40;12.83;;;9.30;;
15878;SDS011;61999;51.514;14.614;2023-04-28T05:02:08;13.30;;;9.40;;
15878;SDS011;61999;51.514;14.614;2023-04-28T05:04:37;14.03;;;10.33;;
15878;SDS011;61999;51.514;14.614;2023-04-28T05:07:05;11.27;;;8.70;;
15878;SDS011;61999;51.514;14.614;2023-04-28T05:09:33;11.77;;;9.53;;
15878;SDS011;61999;51.514;14.614;2023-04-28T05:12:01;13.07;;;10.03;;
15878;SDS011;61999;51.514;14.614;2023-04-28T05:14:30;12.90;;;10.63;;
15878;SDS011;61999;51.514;14.614;2023-04-28T05:16:57;12.93;;;9.00;;
15878;SDS011;61999;51.514;14.614;2023-04-28T05:19:25;13.20;;;9.83;;
15878;SDS011;61999;51.514;14.614;2023-04-28T05:21:55;13.20;;;9.97;;
15878;SDS011;61999;51.514;14.614;2023-04-28T05:24:23;12.93;;;9.43;;
15878;SDS011;61999;51.514;14.614;2023-04-28T05:26:51;12.00;;;9.37;;
15878;SDS011;61999;51.514;14.614;2023-04-28T05:29:19;12.93;;;9.17;;
15878;SDS011;61999;51.514;14.614;2023-04-28T05:31:47;11.03;;;9.23;;
15878;SDS011;61999;51.514;14.614;2023-04-28T05:34:16;13.87;;;10.03;;
15878;SDS011;61999;51.514;14.614;2023-04-28T05:36:44;12.13;;;9.40;;
15878;SDS011;61999;51.514;14.614;2023-04-28T05:39:13;13.63;;;9.70;;
15878;SDS011;61999;51.514;14.614;2023-04-28T05:41:41;13.53;;;9.07;;
15878;SDS011;61999;51.514;14.614;2023-04-28T05:44:09;13.63;;;9.37;;
15878;SDS011;61999;51.514;14.614;2023-04-28T05:46:37;11.00;;;9.37;;
15878;SDS011;61999;51.514;14.614;2023-04-28T05:49:05;13.27;;;9.73;;
15878;SDS011;61999;51.514;14.614;2023-04-28T05:51:33;13.90;;;10.20;;
15878;SDS011;61999;51.514;14.614;2023-04-28T05:54:01;12.17;;;9.20;;
15878;SDS011;61999;51.514;14.614;2023-04-28T05:56:30;13.03;;;9.53;;
15878;SDS011;61999;51.514;14.614;2023-04-28T05:58:59;11.83;;;9.13;;
15878;SDS011;61999;51.514;14.614;2023-04-28T06:01:29;13.10;;;9.80;;
15878;SDS011;61999;51.514;14.614;2023-04-28T06:03:57;13.90;;;8.90;;
15878;SDS011;61999;51.514;14.614;2023-04-28T06:06:25;11.93;;;9.07;;
15878;SDS011;61999;51.514;14.614;2023-04-28T06:08:53;14.33;;;9.97;;
15878;SDS011;61999;51.514;14.614;2023-04-28T06:11:21;13.87;;;8.87;;
15878;SDS011;61999;51.514;14.614;2023-04-28T06:13:51;11.53;;;9.37;;
15878;SDS011;61999;51.514;14.614;2023-04-28T06:16:19;11.47;;;9.07;;
15878;SDS011;61999;51.514;14.614;2023-04-28T06:18:48;10.93;;;8.50;;
15878;SDS011;61999;51.514;14.614;2023-04-28T06:21:16;11.43;;;8.70;;
15878;SDS011;61999;51.514;14.614;2023-04-28T06:23:46;10.10;;;8.30;;
15878;SDS011;61999;51.514;14.614;2023-04-28T06:26:14;11.50;;;8.50;;
15878;SDS011;61999;51.514;14.614;2023-04-28T06:28:43;12.83;;;9.10;;
15878;SDS011;61999;51.514;14.614;2023-04-28T06:31:12;12.03;;;9.23;;
15878;SDS011;61999;51.514;14.614;2023-04-28T06:33:40;10.67;;;8.73;;
15878;SDS011;61999;51.514;14.614;2023-04-28T06:36:08;11.57;;;8.73;;
15878;SDS011;61999;51.514;14.614;2023-04-28T06:38:39;11.93;;;9.37;;
15878;SDS011;61999;51.514;14.614;2023-04-28T06:41:08;8.77;;;7.23;;
15878;SDS011;61999;51.514;14.614;2023-04-28T06:43:36;10.87;;;8.33;;
15878;SDS011;61999;51.514;14.614;2023-04-28T06:46:04;12.17;;;8.33;;
15878;SDS011;61999;51.514;14.614;2023-04-28T06:48:34;9.23;;;8.20;;
15878;SDS011;61999;51.514;14.614;2023-04-28T06:51:02;10.27;;;7.90;;
15878;SDS011;61999;51.514;14.614;2023-04-28T06:53:31;10.70;;;7.83;;
15878;SDS011;61999;51.514;14.614;2023-04-28T06:55:59;9.47;;;7.77;;
15878;SDS011;61999;51.514;14.614;2023-04-28T06:58:28;9.60;;;7.30;;
15878;SDS011;61999;51.514;14.614;2023-04-28T07:00:56;9.57;;;7.50;;
15878;SDS011;61999;51.514;14.614;2023-04-28T07:03:23;11.30;;;7.23;;
15878;SDS011;61999;51.514;14.614;2023-04-28T07:05:54;9.27;;;7.90;;
15878;SDS011;61999;51.514;14.614;2023-04-28T07:08:22;9.87;;;7.30;;
15878;SDS011;61999;51.514;14.614;2023-04-28T07:10:50;10.40;;;7.80;;
15878;SDS011;61999;51.514;14.614;2023-04-28T07:13:18;8.23;;;6.40;;
15878;SDS011;61999;51.514;14.614;2023-04-28T07:15:46;8.80;;;7.20;;
15878;SDS011;61999;51.514;14.614;2023-04-28T07:18:14;7.93;;;7.10;;
15878;SDS011;61999;51.514;14.614;2023-04-28T07:20:42;9.20;;;6.60;;
15878;SDS011;61999;51.514;14.614;2023-04-28T07:23:11;9.40;;;7.30;;
15878;SDS011;61999;51.514;14.614;2023-04-28T07:25:39;9.07;;;7.40;;
15878;SDS011;61999;51.514;14.614;2023-04-28T07:28:07;9.60;;;6.73;;
15878;SDS011;61999;51.514;14.614;2023-04-28T07:30:35;9.50;;;6.87;;
15878;SDS011;61999;51.514;14.614;2023-04-28T07:33:03;13.17;;;6.77;;
15878;SDS011;61999;51.514;14.614;2023-04-28T07:35:32;7.30;;;6.57;;
15878;SDS011;61999;51.514;14.614;2023-04-28T07:38:00;8.43;;;6.33;;
15878;SDS011;61999;51.514;14.614;2023-04-28T07:40:30;6.77;;;5.87;;
15878;SDS011;61999;51.514;14.614;2023-04-28T07:42:58;6.60;;;6.00;;
15878;SDS011;61999;51.514;14.614;2023-04-28T07:45:26;9.30;;;6.40;;
15878;SDS011;61999;51.514;14.614;2023-04-28T07:47:54;8.50;;;6.17;;
15878;SDS011;61999;51.514;14.614;2023-04-28T07:50:22;7.50;;;6.07;;
15878;SDS011;61999;51.514;14.614;2023-04-28T07:52:50;6.77;;;5.53;;
15878;SDS011;61999;51.514;14.614;2023-04-28T07:55:18;6.73;;;5.73;;
15878;SDS011;61999;51.514;14.614;2023-04-28T07:57:48;8.20;;;6.00;;
15878;SDS011;61999;51.514;14.614;2023-04-28T08:00:16;6.70;;;5.87;;
15878;SDS011;61999;51.514;14.614;2023-04-28T08:02:44;6.00;;;5.40;;
15878;SDS011;61999;51.514;14.614;2023-04-28T08:05:12;11.03;;;6.03;;
15878;SDS011;61999;51.514;14.614;2023-04-28T08:07:40;7.70;;;5.63;;
15878;SDS011;61999;51.514;14.614;2023-04-28T08:10:08;8.00;;;5.73;;
15878;SDS011;61999;51.514;14.614;2023-04-28T08:12:37;6.73;;;5.47;;
15878;SDS011;61999;51.514;14.614;2023-04-28T08:15:08;7.63;;;5.47;;
15878;SDS011;61999;51.514;14.614;2023-04-28T08:17:37;9.83;;;6.23;;
15878;SDS011;61999;51.514;14.614;2023-04-28T08:20:06;7.27;;;5.57;;
15878;SDS011;61999;51.514;14.614;2023-04-28T08:22:35;6.43;;;5.57;;
15878;SDS011;61999;51.514;14.614;2023-04-28T08:25:03;6.33;;;5.73;;
15878;SDS011;61999;51.514;14.614;2023-04-28T08:27:32;8.57;;;6.20;;
15878;SDS011;61999;51.514;14.614;2023-04-28T08:30:03;6.50;;;5.47;;
15878;SDS011;61999;51.514;14.614;2023-04-28T08:32:34;7.63;;;6.50;;
15878;SDS011;61999;51.514;14.614;2023-04-28T08:35:02;7.97;;;6.50;;
15878;SDS011;61999;51.514;14.614;2023-04-28T08:37:31;6.37;;;5.73;;
15878;SDS011;61999;51.514;14.614;2023-04-28T08:39:59;7.03;;;5.83;;
15878;SDS011;61999;51.514;14.614;2023-04-28T08:42:30;6.70;;;5.53;;
15878;SDS011;61999;51.514;14.614;2023-04-28T08:44:58;7.27;;;5.77;;
15878;SDS011;61999;51.514;14.614;2023-04-28T08:47:27;6.63;;;5.70;;
15878;SDS011;61999;51.514;14.614;2023-04-28T08:50:03;7.03;;;5.47;;
15878;SDS011;61999;51.514;14.614;2023-04-28T08:52:34;7.23;;;5.77;;
15878;SDS011;61999;51.514;14.614;2023-04-28T08:55:04;6.70;;;5.53;;
15878;SDS011;61999;51.514;14.614;2023-04-28T08:57:36;7.10;;;5.57;;
15878;SDS011;61999;51.514;14.614;2023-04-28T09:00:06;7.17;;;5.00;;
15878;SDS011;61999;51.514;14.614;2023-04-28T09:02:37;5.43;;;5.00;;
15878;SDS011;61999;51.514;14.614;2023-04-28T09:05:07;6.13;;;5.53;;
15878;SDS011;61999;51.514;14.614;2023-04-28T09:07:37;5.30;;;4.77;;
15878;SDS011;61999;51.514;14.614;2023-04-28T09:10:18;6.17;;;5.10;;
15878;SDS011;61999;51.514;14.614;2023-04-28T09:12:50;6.93;;;5.50;;
15878;SDS011;61999;51.514;14.614;2023-04-28T09:15:27;6.00;;;4.97;;
15878;SDS011;61999;51.514;14.614;2023-04-28T09:18:00;6.37;;;4.77;;
15878;SDS011;61999;51.514;14.614;2023-04-28T09:20:29;7.47;;;6.07;;
15878;SDS011;61999;51.514;14.614;2023-04-28T09:23:11;6.83;;;5.73;;
15878;SDS011;61999;51.514;14.614;2023-04-28T09:25:55;7.67;;;5.90;;
15878;SDS011;61999;51.514;14.614;2023-04-28T09:28:25;5.73;;;5.23;;
15878;SDS011;61999;51.514;14.614;2023-04-28T09:30:54;6.00;;;5.40;;
15878;SDS011;61999;51.514;14.614;2023-04-28T09:33:23;7.53;;;5.80;;
15878;SDS011;61999;51.514;14.614;2023-04-28T09:35:52;6.33;;;5.47;;
15878;SDS011;61999;51.514;14.614;2023-04-28T09:38:20;8.37;;;5.23;;
15878;SDS011;61999;51.514;14.614;2023-04-28T09:40:54;5.80;;;5.30;;
15878;SDS011;61999;51.514;14.614;2023-04-28T09:43:28;6.17;;;5.57;;
15878;SDS011;61999;51.514;14.614;2023-04-28T09:45:58;9.20;;;5.47;;
15878;SDS011;61999;51.514;14.614;2023-04-28T09:48:30;7.93;;;5.30;;
15878;SDS011;61999;51.514;14.614;2023-04-28T09:51:00;9.00;;;6.53;;
15878;SDS011;61999;51.514;14.614;2023-04-28T09:53:31;6.00;;;5.40;;
15878;SDS011;61999;51.514;14.614;2023-04-28T09:56:02;6.67;;;5.30;;
15878;SDS011;61999;51.514;14.614;2023-04-28T09:58:31;5.83;;;5.03;;
15878;SDS011;61999;51.514;14.614;2023-04-28T10:01:06;5.90;;;5.00;;
15878;SDS011;61999;51.514;14.614;2023-04-28T10:03:39;9.37;;;5.40;;
15878;SDS011;61999;51.514;14.614;2023-04-28T10:06:10;5.60;;;5.00;;
15878;SDS011;61999;51.514;14.614;2023-04-28T10:08:38;5.87;;;4.43;;
15878;SDS011;61999;51.514;14.614;2023-04-28T10:11:07;4.93;;;4.43;;
15878;SDS011;61999;51.514;14.614;2023-04-28T10:13:35;8.30;;;4.57;;
15878;SDS011;61999;51.514;14.614;2023-04-28T10:16:04;4.20;;;3.77;;
15878;SDS011;61999;51.514;14.614;2023-04-28T10:18:34;5.73;;;4.67;;
15878;SDS011;61999;51.514;14.614;2023-04-28T10:21:05;4.63;;;4.10;;
15878;SDS011;61999;51.514;14.614;2023-04-28T10:26:57;4.63;;;3.80;;
15878;SDS011;61999;51.514;14.614;2023-04-28T10:29:34;4.43;;;3.83;;
15878;SDS011;61999;51.514;14.614;2023-04-28T10:32:19;4.10;;;3.70;;
15878;SDS011;61999;51.514;14.614;2023-04-28T10:34:51;3.90;;;3.07;;
15878;SDS011;61999;51.514;14.614;2023-04-28T10:37:20;4.90;;;3.37;;
15878;SDS011;61999;51.514;14.614;2023-04-28T10:40:33;4.73;;;3.67;;
15878;SDS011;61999;51.514;14.614;2023-04-28T10:43:02;3.77;;;3.03;;
15878;SDS011;61999;51.514;14.614;2023-04-28T10:48:52;4.10;;;3.63;;
15878;SDS011;61999;51.514;14.614;2023-04-28T10:51:23;3.50;;;3.17;;
15878;SDS011;61999;51.514;14.614;2023-04-28T10:54:18;5.30;;;3.50;;
15878;SDS011;61999;51.514;14.614;2023-04-28T10:59:47;4.70;;;3.20;;
15878;SDS011;61999;51.514;14.614;2023-04-28T11:11:13;4.53;;;3.07;;
15878;SDS011;61999;51.514;14.614;2023-04-28T11:13:43;4.20;;;3.50;;
15878;SDS011;61999;51.514;14.614;2023-04-28T11:16:13;5.63;;;3.97;;
15878;SDS011;61999;51.514;14.614;2023-04-28T11:18:54;3.90;;;3.50;;
15878;SDS011;61999;51.514;14.614;2023-04-28T11:21:31;3.93;;;3.20;;
15878;SDS011;61999;51.514;14.614;2023-04-28T11:23:59;6.23;;;4.10;;
15878;SDS011;61999;51.514;14.614;2023-04-28T11:26:37;3.87;;;3.00;;
15878;SDS011;61999;51.514;14.614;2023-04-28T11:29:05;4.87;;;3.60;;
15878;SDS011;61999;51.514;14.614;2023-04-28T11:31:34;3.90;;;2.80;;
15878;SDS011;61999;51.514;14.614;2023-04-28T11:34:07;5.53;;;2.90;;
15878;SDS011;61999;51.514;14.614;2023-04-28T11:36:40;5.13;;;3.30;;
15878;SDS011;61999;51.514;14.614;2023-04-28T11:39:09;4.50;;;3.67;;
15878;SDS011;61999;51.514;14.614;2023-04-28T11:41:42;5.63;;;3.33;;
15878;SDS011;61999;51.514;14.614;2023-04-28T11:44:11;6.50;;;3.00;;
15878;SDS011;61999;51.514;14.614;2023-04-28T11:46:44;3.30;;;3.00;;
15878;SDS011;61999;51.514;14.614;2023-04-28T11:49:16;6.70;;;3.53;;
15878;SDS011;61999;51.514;14.614;2023-04-28T11:51:45;3.50;;;2.93;;
15878;SDS011;61999;51.514;14.614;2023-04-28T11:54:18;5.20;;;3.77;;
15878;SDS011;61999;51.514;14.614;2023-04-28T11:56:50;3.90;;;3.10;;
15878;SDS011;61999;51.514;14.614;2023-04-28T11:59:22;4.47;;;3.30;;
15878;SDS011;61999;51.514;14.614;2023-04-28T12:01:52;4.80;;;3.07;;
15878;SDS011;61999;51.514;14.614;2023-04-28T12:04:25;4.00;;;3.17;;
15878;SDS011;61999;51.514;14.614;2023-04-28T12:06:57;8.00;;;3.10;;
15878;SDS011;61999;51.514;14.614;2023-04-28T12:09:31;9.43;;;4.23;;
15878;SDS011;61999;51.514;14.614;2023-04-28T12:12:03;7.87;;;3.70;;
15878;SDS011;61999;51.514;14.614;2023-04-28T12:14:32;6.33;;;3.10;;
15878;SDS011;61999;51.514;14.614;2023-04-28T12:17:22;5.13;;;3.47;;
15878;SDS011;61999;51.514;14.614;2023-04-28T12:19:51;5.10;;;3.00;;
15878;SDS011;61999;51.514;14.614;2023-04-28T12:22:20;3.30;;;2.70;;
15878;SDS011;61999;51.514;14.614;2023-04-28T12:25:01;5.17;;;3.60;;
15878;SDS011;61999;51.514;14.614;2023-04-28T12:27:35;4.13;;;3.10;;
15878;SDS011;61999;51.514;14.614;2023-04-28T12:32:51;4.47;;;3.23;;
15878;SDS011;61999;51.514;14.614;2023-04-28T12:35:21;7.97;;;2.90;;
15878;SDS011;61999;51.514;14.614;2023-04-28T12:37:49;5.27;;;2.83;;
15878;SDS011;61999;51.514;14.614;2023-04-28T12:40:18;6.73;;;3.10;;
15878;SDS011;61999;51.514;14.614;2023-04-28T12:42:47;5.37;;;3.30;;
15878;SDS011;61999;51.514;14.614;2023-04-28T12:45:16;4.33;;;3.50;;
15878;SDS011;61999;51.514;14.614;2023-04-28T12:47:44;8.37;;;3.60;;
15878;SDS011;61999;51.514;14.614;2023-04-28T12:50:12;3.53;;;2.90;;
15878;SDS011;61999;51.514;14.614;2023-04-28T12:52:40;5.30;;;3.60;;
15878;SDS011;61999;51.514;14.614;2023-04-28T12:55:08;4.53;;;3.53;;
15878;SDS011;61999;51.514;14.614;2023-04-28T12:57:36;6.23;;;3.20;;
15878;SDS011;61999;51.514;14.614;2023-04-28T13:00:06;3.60;;;3.30;;
15878;SDS011;61999;51.514;14.614;2023-04-28T13:02:35;7.27;;;3.80;;
15878;SDS011;61999;51.514;14.614;2023-04-28T13:05:04;4.37;;;3.70;;
15878;SDS011;61999;51.514;14.614;2023-04-28T13:07:34;4.87;;;4.30;;
15878;SDS011;61999;51.514;14.614;2023-04-28T13:10:02;7.80;;;3.93;;
15878;SDS011;61999;51.514;14.614;2023-04-28T13:12:31;6.07;;;4.13;;
15878;SDS011;61999;51.514;14.614;2023-04-28T13:15:00;4.43;;;3.63;;
15878;SDS011;61999;51.514;14.614;2023-04-28T13:17:30;6.33;;;4.57;;
15878;SDS011;61999;51.514;14.614;2023-04-28T13:19:59;3.50;;;2.80;;
15878;SDS011;61999;51.514;14.614;2023-04-28T13:22:29;8.30;;;3.83;;
15878;SDS011;61999;51.514;14.614;2023-04-28T13:24:56;4.50;;;3.73;;
15878;SDS011;61999;51.514;14.614;2023-04-28T13:27:24;5.50;;;3.80;;
15878;SDS011;61999;51.514;14.614;2023-04-28T13:29:55;3.70;;;3.30;;
15878;SDS011;61999;51.514;14.614;2023-04-28T13:32:24;4.97;;;3.23;;
15878;SDS011;61999;51.514;14.614;2023-04-28T13:34:54;5.73;;;3.60;;
15878;SDS011;61999;51.514;14.614;2023-04-28T13:37:22;4.40;;;4.00;;
15878;SDS011;61999;51.514;14.614;2023-04-28T13:39:50;4.40;;;3.47;;
15878;SDS011;61999;51.514;14.614;2023-04-28T13:42:18;7.70;;;3.90;;
15878;SDS011;61999;51.514;14.614;2023-04-28T13:44:46;5.00;;;4.07;;
15878;SDS011;61999;51.514;14.614;2023-04-28T13:47:14;6.63;;;3.77;;
15878;SDS011;61999;51.514;14.614;2023-04-28T13:49:42;5.23;;;3.90;;
15878;SDS011;61999;51.514;14.614;2023-04-28T13:52:11;4.77;;;4.00;;
15878;SDS011;61999;51.514;14.614;2023-04-28T13:54:40;8.53;;;3.70;;
15878;SDS011;61999;51.514;14.614;2023-04-28T13:57:08;5.93;;;3.93;;
15878;SDS011;61999;51.514;14.614;2023-04-28T13:59:38;5.37;;;4.27;;
15878;SDS011;61999;51.514;14.614;2023-04-28T14:02:06;4.13;;;3.73;;
15878;SDS011;61999;51.514;14.614;2023-04-28T14:04:36;5.67;;;3.87;;
15878;SDS011;61999;51.514;14.614;2023-04-28T14:07:04;6.63;;;4.23;;
15878;SDS011;61999;51.514;14.614;2023-04-28T14:09:33;5.23;;;3.80;;
15878;SDS011;61999;51.514;14.614;2023-04-28T14:12:01;5.40;;;4.30;;
15878;SDS011;61999;51.514;14.614;2023-04-28T14:14:29;6.47;;;3.90;;
15878;SDS011;61999;51.514;14.614;2023-04-28T14:16:57;5.90;;;3.80;;
15878;SDS011;61999;51.514;14.614;2023-04-28T14:19:25;6.10;;;4.20;;
15878;SDS011;61999;51.514;14.614;2023-04-28T14:21:54;6.50;;;4.60;;
15878;SDS011;61999;51.514;14.614;2023-04-28T14:24:22;4.97;;;3.37;;
15878;SDS011;61999;51.514;14.614;2023-04-28T14:26:52;5.30;;;4.07;;
15878;SDS011;61999;51.514;14.614;2023-04-28T14:29:20;5.87;;;3.97;;
15878;SDS011;61999;51.514;14.614;2023-04-28T14:31:48;3.70;;;3.30;;
15878;SDS011;61999;51.514;14.614;2023-04-28T14:34:16;4.53;;;3.40;;
15878;SDS011;61999;51.514;14.614;2023-04-28T14:36:43;7.20;;;3.50;;
15878;SDS011;61999;51.514;14.614;2023-04-28T14:39:13;4.47;;;3.37;;
15878;SDS011;61999;51.514;14.614;2023-04-28T14:41:41;5.27;;;4.07;;
15878;SDS011;61999;51.514;14.614;2023-04-28T14:44:10;4.60;;;4.20;;
15878;SDS011;61999;51.514;14.614;2023-04-28T14:46:38;6.03;;;3.80;;
15878;SDS011;61999;51.514;14.614;2023-04-28T14:49:06;4.17;;;3.30;;
15878;SDS011;61999;51.514;14.614;2023-04-28T14:51:34;3.90;;;3.50;;
15878;SDS011;61999;51.514;14.614;2023-04-28T14:54:02;3.20;;;2.90;;
15878;SDS011;61999;51.514;14.614;2023-04-28T14:56:30;4.70;;;3.30;;
15878;SDS011;61999;51.514;14.614;2023-04-28T14:58:59;3.50;;;2.97;;
15878;SDS011;61999;51.514;14.614;2023-04-28T15:01:28;3.53;;;3.23;;
15878;SDS011;61999;51.514;14.614;2023-04-28T15:03:56;4.27;;;3.40;;
15878;SDS011;61999;51.514;14.614;2023-04-28T15:06:24;4.40;;;4.00;;